Time,TemperatureF,DewpointF,PressureIn,WindDirection,WindDirectionDegrees,WindSpeedMPH,WindSpeedGustMPH,Humidity,HourlyPrecipIn,Conditions,Clouds,dailyrainin,SolarRadiationWatts/m^2,SoftwareType,DateUTC
2013-08-25 00:22:00,72.0,36.0,-100.00,NNE,14,10.0,14.0,27,0.00,,,0.00,0.000000,,2013-08-25 07:22:00,
2013-08-25 00:32:00,72.0,36.0,-100.00,NNE,14,10.0,14.0,27,0.00,,,0.00,0.000000,,2013-08-25 07:32:00,
2013-08-25 00:42:00,72.0,36.0,-100.00,NNE,14,10.0,14.0,27,0.00,,,0.00,0.000000,,2013-08-25 07:42:00,
2013-08-25 00:52:00,72.0,36.0,-100.00,NNE,14,10.0,14.0,27,0.00,,,0.00,0.000000,,2013-08-25 07:52:00,
2013-08-25 01:21:00,70.0,36.0,-100.00,North,9,11.0,17.0,29,0.00,,,0.00,0.000000,,2013-08-25 08:21:00,
2013-08-25 01:32:00,70.0,36.0,-100.00,North,9,11.0,17.0,29,0.00,,,0.00,0.000000,,2013-08-25 08:32:00,
2013-08-25 01:42:00,70.0,36.0,-100.00,North,9,11.0,17.0,29,0.00,,,0.00,0.000000,,2013-08-25 08:42:00,
2013-08-25 01:52:00,70.0,36.0,-100.00,North,9,11.0,17.0,29,0.00,,,0.00,0.000000,,2013-08-25 08:52:00,
2013-08-25 02:22:00,70.0,36.0,-100.00,North,7,11.0,16.0,29,0.00,,,0.00,0.000000,,2013-08-25 09:22:00,
2013-08-25 02:34:00,70.0,36.0,-100.00,North,7,11.0,16.0,29,0.00,,,0.00,0.000000,,2013-08-25 09:34:00,
2013-08-25 02:44:00,70.0,36.0,-100.00,North,7,11.0,16.0,29,0.00,,,0.00,0.000000,,2013-08-25 09:44:00,
2013-08-25 02:55:00,70.0,36.0,-100.00,North,7,11.0,16.0,29,0.00,,,0.00,0.000000,,2013-08-25 09:55:00,
2013-08-25 03:22:00,68.0,35.0,-100.00,NNE,14,13.0,17.0,30,0.00,,,0.00,0.000000,,2013-08-25 10:22:00,
2013-08-25 03:33:00,68.0,35.0,-100.00,NNE,14,13.0,17.0,30,0.00,,,0.00,0.000000,,2013-08-25 10:33:00,
2013-08-25 03:42:00,68.0,35.0,-100.00,NNE,14,13.0,17.0,30,0.00,,,0.00,0.000000,,2013-08-25 10:42:00,
2013-08-25 03:53:00,68.0,35.0,-100.00,NNE,14,13.0,17.0,30,0.00,,,0.00,0.000000,,2013-08-25 10:53:00,
2013-08-25 04:22:00,67.0,35.0,-100.00,North,11,13.0,18.0,30,0.00,,,0.00,0.000000,,2013-08-25 11:22:00,
2013-08-25 04:33:00,67.0,35.0,-100.00,North,11,13.0,18.0,30,0.00,,,0.00,0.000000,,2013-08-25 11:33:00,
2013-08-25 04:42:00,67.0,35.0,-100.00,North,11,13.0,18.0,30,0.00,,,0.00,0.000000,,2013-08-25 11:42:00,
2013-08-25 04:52:00,67.0,35.0,-100.00,North,11,13.0,18.0,30,0.00,,,0.00,0.000000,,2013-08-25 11:52:00,
2013-08-25 05:22:00,67.0,35.0,-100.00,North,8,11.0,17.0,31,0.00,,,0.00,0.000000,,2013-08-25 12:22:00,
2013-08-25 05:32:00,67.0,35.0,-100.00,North,8,11.0,17.0,31,0.00,,,0.00,0.000000,,2013-08-25 12:32:00,
2013-08-25 05:42:00,67.0,35.0,-100.00,North,8,11.0,17.0,31,0.00,,,0.00,0.000000,,2013-08-25 12:42:00,
2013-08-25 05:52:00,67.0,35.0,-100.00,North,8,11.0,17.0,31,0.00,,,0.00,0.000000,,2013-08-25 12:52:00,
2013-08-25 06:21:00,64.0,34.0,-100.00,North,7,12.0,18.0,32,0.00,,,-99.99,0.000000,,2013-08-25 13:21:00,
2013-08-25 06:32:00,64.0,34.0,-100.00,North,7,12.0,18.0,32,0.00,,,-99.99,0.000000,,2013-08-25 13:32:00,
2013-08-25 06:42:00,64.0,34.0,-100.00,North,7,12.0,18.0,32,0.00,,,-99.99,0.000000,,2013-08-25 13:42:00,
2013-08-25 06:52:00,64.0,34.0,-100.00,North,7,12.0,18.0,32,0.00,,,-99.99,0.000000,,2013-08-25 13:52:00,
2013-08-25 07:24:00,65.0,35.0,-100.00,NNE,14,10.0,19.0,33,0.00,,,0.00,5.000000,,2013-08-25 14:24:00,
2013-08-25 07:32:00,65.0,35.0,-100.00,NNE,14,10.0,19.0,33,0.00,,,0.00,5.000000,,2013-08-25 14:32:00,
2013-08-25 07:42:00,65.0,35.0,-100.00,NNE,14,10.0,19.0,33,0.00,,,0.00,5.000000,,2013-08-25 14:42:00,
2013-08-25 07:52:00,65.0,35.0,-100.00,NNE,14,10.0,19.0,33,0.00,,,0.00,5.000000,,2013-08-25 14:52:00,
2013-08-25 08:23:00,65.0,34.0,-100.00,North,10,11.0,15.0,31,0.00,,,0.00,63.000000,,2013-08-25 15:23:00,
2013-08-25 08:35:00,65.0,34.0,-100.00,North,10,11.0,15.0,31,0.00,,,0.00,63.000000,,2013-08-25 15:35:00,
2013-08-25 08:44:00,65.0,34.0,-100.00,North,10,11.0,15.0,31,0.00,,,0.00,63.000000,,2013-08-25 15:44:00,
2013-08-25 09:24:00,72.0,34.0,-100.00,NE,36,6.0,18.0,25,0.00,,,0.00,398.000000,,2013-08-25 16:24:00,
2013-08-25 09:33:00,72.0,34.0,-100.00,NE,36,6.0,18.0,25,0.00,,,0.00,398.000000,,2013-08-25 16:33:00,
2013-08-25 09:44:00,72.0,34.0,-100.00,NE,36,6.0,18.0,25,0.00,,,0.00,398.000000,,2013-08-25 16:44:00,
2013-08-25 09:53:00,72.0,34.0,-100.00,NE,36,6.0,18.0,25,0.00,,,0.00,398.000000,,2013-08-25 16:53:00,
2013-08-25 10:22:00,80.0,31.0,-100.00,North,9,6.0,10.0,17,0.00,,,0.00,599.000000,,2013-08-25 17:22:00,
2013-08-25 10:34:00,80.0,31.0,-100.00,North,9,6.0,10.0,17,0.00,,,0.00,599.000000,,2013-08-25 17:34:00,
2013-08-25 10:42:00,80.0,31.0,-100.00,North,9,6.0,10.0,17,0.00,,,0.00,599.000000,,2013-08-25 17:42:00,
2013-08-25 10:53:00,80.0,31.0,-100.00,North,9,6.0,10.0,17,0.00,,,0.00,599.000000,,2013-08-25 17:53:00,
2013-08-25 11:21:00,84.0,31.0,-100.00,South,180,5.0,10.0,15,0.00,,,0.00,811.000000,,2013-08-25 18:21:00,
2013-08-25 11:32:00,84.0,31.0,-100.00,South,180,5.0,10.0,15,0.00,,,0.00,811.000000,,2013-08-25 18:32:00,
2013-08-25 11:42:00,84.0,31.0,-100.00,South,180,5.0,10.0,15,0.00,,,0.00,811.000000,,2013-08-25 18:42:00,
2013-08-25 11:52:00,84.0,31.0,-100.00,South,180,5.0,10.0,15,0.00,,,0.00,811.000000,,2013-08-25 18:52:00,
2013-08-25 12:22:00,87.0,30.0,-100.00,South,176,10.0,15.0,13,0.00,,,0.00,969.000000,,2013-08-25 19:22:00,
2013-08-25 12:32:00,87.0,30.0,-100.00,South,176,10.0,15.0,13,0.00,,,0.00,969.000000,,2013-08-25 19:32:00,
2013-08-25 12:42:00,87.0,30.0,-100.00,South,176,10.0,15.0,13,0.00,,,0.00,969.000000,,2013-08-25 19:42:00,
2013-08-25 12:53:00,87.0,30.0,-100.00,South,176,10.0,15.0,13,0.00,,,0.00,969.000000,,2013-08-25 19:53:00,
2013-08-25 13:23:00,88.0,22.0,-100.00,SSE,168,14.0,23.0,9,0.00,,,0.00,1052.000000,,2013-08-25 20:23:00,
2013-08-25 13:33:00,88.0,22.0,-100.00,SSE,168,14.0,23.0,9,0.00,,,0.00,1052.000000,,2013-08-25 20:33:00,
2013-08-25 13:43:00,88.0,22.0,-100.00,SSE,168,14.0,23.0,9,0.00,,,0.00,1052.000000,,2013-08-25 20:43:00,
2013-08-25 13:52:00,88.0,22.0,-100.00,SSE,168,14.0,23.0,9,0.00,,,0.00,1052.000000,,2013-08-25 20:52:00,
2013-08-25 14:22:00,91.0,24.0,-100.00,South,178,20.0,28.0,9,0.00,,,0.00,1042.000000,,2013-08-25 21:22:00,
2013-08-25 14:34:00,91.0,24.0,-100.00,South,178,20.0,28.0,9,0.00,,,0.00,1042.000000,,2013-08-25 21:34:00,
2013-08-25 14:43:00,91.0,24.0,-100.00,South,178,20.0,28.0,9,0.00,,,0.00,1042.000000,,2013-08-25 21:43:00,
2013-08-25 14:54:00,91.0,24.0,-100.00,South,178,20.0,28.0,9,0.00,,,0.00,1042.000000,,2013-08-25 21:54:00,
2013-08-25 15:24:00,91.0,29.0,-100.00,NW,315,22.0,29.0,11,0.00,,,0.00,974.000000,,2013-08-25 22:24:00,
2013-08-25 15:34:00,91.0,29.0,-100.00,NW,315,22.0,29.0,11,0.00,,,0.00,974.000000,,2013-08-25 22:34:00,
2013-08-25 15:43:00,91.0,29.0,-100.00,NW,315,22.0,29.0,11,0.00,,,0.00,974.000000,,2013-08-25 22:43:00,
2013-08-25 15:53:00,91.0,29.0,-100.00,NW,315,22.0,29.0,11,0.00,,,0.00,974.000000,,2013-08-25 22:53:00,
2013-08-25 16:23:00,92.0,30.0,-100.00,NW,316,19.0,28.0,11,0.00,,,-99.99,858.000000,,2013-08-25 23:23:00,
2013-08-25 16:33:00,92.0,30.0,-100.00,NW,316,19.0,28.0,11,0.00,,,-99.99,858.000000,,2013-08-25 23:33:00,
2013-08-25 16:42:00,92.0,30.0,-100.00,NW,316,19.0,28.0,11,0.00,,,-99.99,858.000000,,2013-08-25 23:42:00,
2013-08-25 16:53:00,92.0,30.0,-100.00,NW,316,19.0,28.0,11,0.00,,,-99.99,858.000000,,2013-08-25 23:53:00,
2013-08-25 17:22:00,90.0,31.0,-100.00,NW,307,15.0,27.0,12,0.00,,,0.00,671.000000,,2013-08-26 00:22:00,
2013-08-25 17:32:00,90.0,31.0,-100.00,NW,307,15.0,27.0,12,0.00,,,0.00,671.000000,,2013-08-26 00:32:00,
2013-08-25 17:42:00,90.0,31.0,-100.00,NW,307,15.0,27.0,12,0.00,,,0.00,671.000000,,2013-08-26 00:42:00,
2013-08-25 17:52:00,90.0,31.0,-100.00,NW,307,15.0,27.0,12,0.00,,,0.00,671.000000,,2013-08-26 00:52:00,
2013-08-25 18:22:00,88.0,29.0,-100.00,West,272,10.0,22.0,12,0.00,,,0.00,441.000000,,2013-08-26 01:22:00,
2013-08-25 18:32:00,88.0,29.0,-100.00,West,272,10.0,22.0,12,0.00,,,0.00,441.000000,,2013-08-26 01:32:00,
2013-08-25 18:42:00,88.0,29.0,-100.00,West,272,10.0,22.0,12,0.00,,,0.00,441.000000,,2013-08-26 01:42:00,
2013-08-25 18:52:00,88.0,29.0,-100.00,West,272,10.0,22.0,12,0.00,,,0.00,441.000000,,2013-08-26 01:52:00,
2013-08-25 19:21:00,85.0,29.0,-100.00,NW,313,11.0,17.0,13,0.00,,,0.00,146.000000,,2013-08-26 02:21:00,
2013-08-25 19:32:00,85.0,29.0,-100.00,NW,313,11.0,17.0,13,0.00,,,0.00,146.000000,,2013-08-26 02:32:00,
2013-08-25 19:42:00,85.0,29.0,-100.00,NW,313,11.0,17.0,13,0.00,,,0.00,146.000000,,2013-08-26 02:42:00,
2013-08-25 19:52:00,85.0,29.0,-100.00,NW,313,11.0,17.0,13,0.00,,,0.00,146.000000,,2013-08-26 02:52:00,
2013-08-25 20:22:00,81.0,33.0,-100.00,North,349,9.0,19.0,18,0.00,,,0.00,7.000000,,2013-08-26 03:22:00,
2013-08-25 20:34:00,81.0,33.0,-100.00,North,349,9.0,19.0,18,0.00,,,0.00,7.000000,,2013-08-26 03:34:00,
2013-08-25 20:44:00,81.0,33.0,-100.00,North,349,9.0,19.0,18,0.00,,,0.00,7.000000,,2013-08-26 03:44:00,
2013-08-25 20:55:00,81.0,33.0,-100.00,North,349,9.0,19.0,18,0.00,,,0.00,7.000000,,2013-08-26 03:55:00,
2013-08-25 21:24:00,78.0,36.0,-100.00,SE,139,3.0,15.0,22,0.00,,,0.00,0.000000,,2013-08-26 04:24:00,
2013-08-25 21:34:00,78.0,36.0,-100.00,SE,139,3.0,15.0,22,0.00,,,0.00,0.000000,,2013-08-26 04:34:00,
2013-08-25 21:43:00,78.0,36.0,-100.00,SE,139,3.0,15.0,22,0.00,,,0.00,0.000000,,2013-08-26 04:43:00,
2013-08-25 21:53:00,78.0,36.0,-100.00,SE,139,3.0,15.0,22,0.00,,,0.00,0.000000,,2013-08-26 04:53:00,
2013-08-25 22:23:00,77.0,38.0,-100.00,North,352,0.0,9.0,25,0.00,,,0.00,0.000000,,2013-08-26 05:23:00,
2013-08-25 22:33:00,77.0,38.0,-100.00,North,352,0.0,9.0,25,0.00,,,0.00,0.000000,,2013-08-26 05:33:00,
2013-08-25 22:43:00,77.0,38.0,-100.00,North,352,0.0,9.0,25,0.00,,,0.00,0.000000,,2013-08-26 05:43:00,
2013-08-25 22:52:00,77.0,38.0,-100.00,North,352,0.0,9.0,25,0.00,,,0.00,0.000000,,2013-08-26 05:52:00,
2013-08-25 23:21:00,73.0,32.0,-100.00,North,5,7.0,11.0,22,0.00,,,0.00,0.000000,,2013-08-26 06:21:00,
2013-08-25 23:32:00,73.0,32.0,-100.00,North,5,7.0,11.0,22,0.00,,,0.00,0.000000,,2013-08-26 06:32:00,
2013-08-25 23:42:00,73.0,32.0,-100.00,North,5,7.0,11.0,22,0.00,,,0.00,0.000000,,2013-08-26 06:42:00,
2013-08-25 23:52:00,73.0,32.0,-100.00,North,5,7.0,11.0,22,0.00,,,0.00,0.000000,,2013-08-26 06:52:00,